createdAt,value
2022-11-27T00:01:24.179Z,8.50
2022-11-27T00:03:53.776Z,8.50
2022-11-27T00:06:23.074Z,8.40
2022-11-27T00:08:52.343Z,8.40
2022-11-27T00:11:20.697Z,8.40
2022-11-27T00:13:47.899Z,8.40
2022-11-27T00:16:17.109Z,8.40
2022-11-27T00:18:46.801Z,8.40
2022-11-27T00:21:22.361Z,8.40
2022-11-27T00:23:49.274Z,8.40
2022-11-27T00:26:16.017Z,8.40
2022-11-27T00:28:45.440Z,8.40
2022-11-27T00:31:16.481Z,8.40
2022-11-27T00:33:43.522Z,8.40
2022-11-27T00:36:11.032Z,8.40
2022-11-27T00:38:40.116Z,8.40
2022-11-27T00:41:09.777Z,8.40
2022-11-27T00:43:44.525Z,8.40
2022-11-27T00:46:21.634Z,8.40
2022-11-27T00:48:51.283Z,8.40
2022-11-27T00:51:18.821Z,8.40
2022-11-27T00:53:45.862Z,8.40
2022-11-27T00:56:27.616Z,8.40
2022-11-27T00:58:54.441Z,8.40
2022-11-27T01:01:22.715Z,8.40
2022-11-27T01:03:49.754Z,8.40
2022-11-27T01:06:17.432Z,8.40
2022-11-27T01:08:46.506Z,8.30
2022-11-27T01:11:22.343Z,8.40
2022-11-27T01:13:51.485Z,8.30
2022-11-27T01:16:19.815Z,8.30
2022-11-27T01:18:47.211Z,8.40
2022-11-27T01:21:15.120Z,8.40
2022-11-27T01:23:41.892Z,8.40
2022-11-27T01:26:09.615Z,8.40
2022-11-27T01:28:36.598Z,8.40
2022-11-27T01:31:12.441Z,8.40
2022-11-27T01:33:41.579Z,8.40
2022-11-27T01:36:11.277Z,8.40
2022-11-27T01:38:38.249Z,8.40
2022-11-27T01:41:12.875Z,8.40
2022-11-27T01:43:39.813Z,8.40
2022-11-27T01:46:12.596Z,8.40
2022-11-27T01:48:39.501Z,8.40
2022-11-27T01:51:06.370Z,8.40
2022-11-27T01:53:37.959Z,8.40
2022-11-27T01:56:05.492Z,8.40
2022-11-27T01:58:35.314Z,8.40
2022-11-27T02:01:04.555Z,8.40
2022-11-27T02:03:32.685Z,8.40
2022-11-27T02:05:59.487Z,8.40
2022-11-27T02:08:26.291Z,8.40
2022-11-27T02:10:56.770Z,8.30
2022-11-27T02:13:35.824Z,8.30
2022-11-27T02:16:02.563Z,8.30
2022-11-27T02:18:29.271Z,8.30
2022-11-27T02:21:02.158Z,8.30
2022-11-27T02:23:41.479Z,8.30
2022-11-27T02:26:31.462Z,8.30
2022-11-27T02:29:06.522Z,8.30
2022-11-27T02:31:45.512Z,8.20
2022-11-27T02:34:31.448Z,8.20
2022-11-27T02:37:09.693Z,8.20
2022-11-27T02:39:43.043Z,8.20
2022-11-27T02:42:12.823Z,8.10
2022-11-27T02:44:42.906Z,8.10
2022-11-27T02:47:12.525Z,8.10
2022-11-27T02:49:41.054Z,8.10
2022-11-27T02:52:07.829Z,8.10
2022-11-27T02:54:35.067Z,8.00
2022-11-27T02:57:04.895Z,8.00
2022-11-27T02:59:33.367Z,7.90
2022-11-27T03:02:02.741Z,7.90
2022-11-27T03:04:34.986Z,7.90
2022-11-27T03:07:04.758Z,7.90
2022-11-27T03:09:34.361Z,7.90
2022-11-27T03:12:06.220Z,7.90
2022-11-27T03:14:33.670Z,7.90
2022-11-27T03:17:17.168Z,7.90
2022-11-27T03:20:02.940Z,7.80
2022-11-27T03:22:31.601Z,7.80
2022-11-27T03:25:01.217Z,7.80
2022-11-27T03:27:34.414Z,7.80
2022-11-27T03:30:04.518Z,7.80
2022-11-27T03:32:33.990Z,7.80
2022-11-27T03:35:03.603Z,7.70
2022-11-27T03:37:30.399Z,7.70
2022-11-27T03:39:57.189Z,7.70
2022-11-27T03:42:29.089Z,7.70
2022-11-27T03:45:01.426Z,7.70
2022-11-27T03:47:31.262Z,7.70
2022-11-27T03:50:12.673Z,7.70
2022-11-27T03:52:53.918Z,7.70
2022-11-27T03:55:23.809Z,7.70
2022-11-27T03:57:57.671Z,7.70
2022-11-27T04:00:28.336Z,7.70
2022-11-27T04:02:55.025Z,7.60
2022-11-27T04:05:21.893Z,7.60
2022-11-27T04:07:48.863Z,7.50
2022-11-27T04:10:15.728Z,7.50
2022-11-27T04:12:44.912Z,7.50
2022-11-27T04:15:11.984Z,7.50
2022-11-27T04:17:38.770Z,7.50
2022-11-27T04:20:07.228Z,7.40
2022-11-27T04:22:33.990Z,7.40
2022-11-27T04:25:00.781Z,7.30
2022-11-27T04:27:29.896Z,7.30
2022-11-27T04:29:56.676Z,7.30
2022-11-27T04:32:27.891Z,7.30
2022-11-27T04:34:54.617Z,7.20
2022-11-27T04:37:21.359Z,7.20
2022-11-27T04:39:48.183Z,7.10
2022-11-27T04:42:17.261Z,7.10
2022-11-27T04:44:46.053Z,7.10
2022-11-27T04:47:14.837Z,7.10
2022-11-27T04:49:43.572Z,7.10
2022-11-27T04:52:10.999Z,7.00
2022-11-27T04:54:40.781Z,7.00
2022-11-27T04:57:07.727Z,6.90
2022-11-27T04:59:34.438Z,6.90
2022-11-27T05:02:01.127Z,6.80
2022-11-27T05:04:27.933Z,6.80
2022-11-27T05:06:54.705Z,6.80
2022-11-27T05:09:21.575Z,6.70
2022-11-27T05:11:50.561Z,6.70
2022-11-27T05:14:27.786Z,6.70
2022-11-27T05:17:01.015Z,6.70
2022-11-27T05:19:29.272Z,6.70
2022-11-27T05:21:56.384Z,6.70
2022-11-27T05:24:26.541Z,6.70
2022-11-27T05:26:53.297Z,6.70
2022-11-27T05:29:20.466Z,6.60
2022-11-27T05:31:47.388Z,6.60
2022-11-27T05:34:16.640Z,6.60
2022-11-27T05:36:43.731Z,6.60
2022-11-27T05:39:13.189Z,6.50
2022-11-27T05:41:43.193Z,6.50
2022-11-27T05:44:13.937Z,6.50
2022-11-27T05:46:41.096Z,6.40
2022-11-27T05:49:07.874Z,6.40
2022-11-27T05:51:40.410Z,6.40
2022-11-27T05:54:07.250Z,6.30
2022-11-27T05:56:33.959Z,6.30
2022-11-27T05:59:00.738Z,6.20
2022-11-27T06:01:27.502Z,6.20
2022-11-27T06:03:54.253Z,6.20
2022-11-27T06:06:21.286Z,6.20
2022-11-27T06:08:48.093Z,6.20
2022-11-27T06:11:19.998Z,6.10
2022-11-27T06:13:49.760Z,6.10
2022-11-27T06:16:20.393Z,6.00
2022-11-27T06:18:54.217Z,6.00
2022-11-27T06:21:21.676Z,6.00
2022-11-27T06:23:48.629Z,6.00
2022-11-27T06:26:15.356Z,5.90
2022-11-27T06:28:44.837Z,5.90
2022-11-27T06:31:17.878Z,5.90
2022-11-27T06:33:48.943Z,5.90
2022-11-27T06:36:18.923Z,5.90
2022-11-27T06:38:46.007Z,5.80
2022-11-27T06:41:14.017Z,5.80
2022-11-27T06:43:46.029Z,5.80
2022-11-27T06:46:15.426Z,5.90
2022-11-27T06:48:42.975Z,5.80
2022-11-27T06:51:10.259Z,5.90
2022-11-27T06:53:40.337Z,5.80
2022-11-27T06:56:08.902Z,5.90
2022-11-27T06:58:35.774Z,5.80
2022-11-27T07:01:04.175Z,5.80
2022-11-27T07:03:35.725Z,5.80
2022-11-27T07:06:03.336Z,5.80
2022-11-27T07:08:30.241Z,5.80
2022-11-27T07:11:03.187Z,5.80
2022-11-27T07:13:30.594Z,5.80
2022-11-27T07:16:01.289Z,5.70
2022-11-27T07:18:31.177Z,5.70
2022-11-27T07:20:57.886Z,5.70
2022-11-27T07:23:27.086Z,5.70
2022-11-27T07:25:53.881Z,5.70
2022-11-27T07:28:20.701Z,5.60
2022-11-27T07:30:54.242Z,5.70
2022-11-27T07:33:21.075Z,5.60
2022-11-27T07:35:47.841Z,5.60
2022-11-27T07:38:16.616Z,5.60
2022-11-27T07:40:45.793Z,5.60
2022-11-27T07:43:12.529Z,5.60
2022-11-27T07:45:39.940Z,5.60
2022-11-27T07:48:06.687Z,5.60
2022-11-27T07:50:33.444Z,5.70
2022-11-27T07:53:00.134Z,5.60
2022-11-27T07:55:29.307Z,5.70
2022-11-27T07:57:56.049Z,5.60
2022-11-27T08:00:22.861Z,5.70
2022-11-27T08:02:51.958Z,5.60
2022-11-27T08:05:21.175Z,5.70
2022-11-27T08:07:47.965Z,5.70
2022-11-27T08:10:17.242Z,5.60
2022-11-27T08:12:43.981Z,5.70
2022-11-27T08:15:10.816Z,5.70
2022-11-27T08:17:37.917Z,5.70
2022-11-27T08:20:07.472Z,5.70
2022-11-27T08:22:35.942Z,5.80
2022-11-27T08:25:02.788Z,5.80
2022-11-27T08:27:31.137Z,5.70
2022-11-27T08:29:57.871Z,5.70
2022-11-27T08:32:24.602Z,5.70
2022-11-27T08:34:51.298Z,5.70
2022-11-27T08:37:17.995Z,5.80
2022-11-27T08:39:44.782Z,5.80
2022-11-27T08:42:11.522Z,5.80
2022-11-27T08:44:38.424Z,5.80
2022-11-27T08:47:05.414Z,5.80
2022-11-27T08:49:34.519Z,5.80
2022-11-27T08:52:01.256Z,5.80
2022-11-27T08:54:27.947Z,5.90
2022-11-27T08:56:54.671Z,5.80
2022-11-27T08:59:23.538Z,5.90
2022-11-27T09:01:50.292Z,5.90
2022-11-27T09:04:19.530Z,5.90
2022-11-27T09:06:47.275Z,5.90
2022-11-27T09:09:14.693Z,5.90
2022-11-27T09:11:41.737Z,6.00
2022-11-27T09:14:11.145Z,5.90
2022-11-27T09:16:40.409Z,6.00
2022-11-27T09:19:07.139Z,6.00
2022-11-27T09:21:38.461Z,6.00
2022-11-27T09:24:07.591Z,6.00
2022-11-27T09:26:34.442Z,6.00
2022-11-27T09:29:01.728Z,6.00
2022-11-27T09:31:34.963Z,6.00
2022-11-27T09:34:05.515Z,6.10
2022-11-27T09:36:34.715Z,6.10
2022-11-27T09:39:03.466Z,6.20
2022-11-27T09:41:39.036Z,6.20
2022-11-27T09:44:18.555Z,6.20
2022-11-27T09:46:45.462Z,6.20
2022-11-27T09:49:21.326Z,6.20
2022-11-27T09:51:53.995Z,6.20
2022-11-27T09:54:25.753Z,6.20
2022-11-27T09:56:53.750Z,6.30
2022-11-27T09:59:22.625Z,6.30
2022-11-27T10:01:51.686Z,6.30
2022-11-27T10:04:19.979Z,6.40
2022-11-27T10:06:55.992Z,6.40
2022-11-27T10:09:38.209Z,6.40
2022-11-27T10:12:23.896Z,6.50
2022-11-27T10:14:59.827Z,6.50
2022-11-27T10:17:32.598Z,6.50
2022-11-27T10:20:08.300Z,6.50
2022-11-27T10:22:38.267Z,6.60
2022-11-27T10:25:08.051Z,6.60
2022-11-27T10:27:43.610Z,6.60
2022-11-27T10:30:15.524Z,6.60
2022-11-27T10:32:58.451Z,6.60
2022-11-27T10:35:26.787Z,6.70
2022-11-27T10:38:07.205Z,6.70
2022-11-27T10:40:38.704Z,6.70
2022-11-27T10:43:05.516Z,6.70
2022-11-27T10:45:50.174Z,6.70
2022-11-27T10:48:17.279Z,6.80
2022-11-27T10:50:46.830Z,6.80
2022-11-27T10:53:13.555Z,6.80
2022-11-27T10:55:43.484Z,6.90
2022-11-27T10:58:24.944Z,6.80
2022-11-27T11:01:06.876Z,6.90
2022-11-27T11:03:34.004Z,6.90
2022-11-27T11:06:19.901Z,6.90
2022-11-27T11:09:01.593Z,6.90
2022-11-27T11:11:30.859Z,7.00
2022-11-27T11:13:57.655Z,7.00
2022-11-27T11:16:29.401Z,7.10
2022-11-27T11:18:58.862Z,7.10
2022-11-27T11:21:33.708Z,7.10
2022-11-27T11:24:00.527Z,7.10
2022-11-27T11:26:34.233Z,7.10
2022-11-27T11:29:02.745Z,7.20
2022-11-27T11:31:36.550Z,7.20
2022-11-27T11:34:14.065Z,7.30
2022-11-27T11:36:41.317Z,7.30
2022-11-27T11:39:20.957Z,7.40
2022-11-27T11:41:47.789Z,7.40
2022-11-27T11:44:23.771Z,7.40
2022-11-27T11:46:54.165Z,7.40
2022-11-27T11:49:27.729Z,7.40
2022-11-27T11:51:57.576Z,7.40
2022-11-27T11:54:45.178Z,7.40
2022-11-27T11:57:32.170Z,7.50
2022-11-27T12:00:03.681Z,7.50
2022-11-27T12:02:50.400Z,7.40
2022-11-27T12:05:25.767Z,7.40
2022-11-27T12:08:04.345Z,7.50
2022-11-27T12:10:49.962Z,7.50
2022-11-27T12:13:35.742Z,7.50
2022-11-27T12:16:10.635Z,7.50
2022-11-27T12:18:39.916Z,7.60
2022-11-27T12:21:13.381Z,7.60
2022-11-27T12:23:52.057Z,7.60
2022-11-27T12:26:18.776Z,7.60
2022-11-27T12:28:45.605Z,7.60
2022-11-27T12:31:15.494Z,7.60
2022-11-27T12:34:05.752Z,7.60
2022-11-27T12:36:50.944Z,7.60
2022-11-27T12:39:20.865Z,7.60
2022-11-27T12:41:57.407Z,7.60
2022-11-27T12:44:27.122Z,7.60
2022-11-27T12:47:22.643Z,7.70
2022-11-27T12:49:57.294Z,7.70
2022-11-27T12:52:33.040Z,7.70
2022-11-27T12:55:03.061Z,7.70
2022-11-27T12:57:48.827Z,7.70
2022-11-27T13:00:17.915Z,7.70
2022-11-27T13:03:14.144Z,7.70
2022-11-27T13:05:53.102Z,7.70
2022-11-27T13:08:38.023Z,7.70
2022-11-27T13:11:10.094Z,7.70
2022-11-27T13:13:42.190Z,7.70
2022-11-27T13:16:24.458Z,7.70
2022-11-27T13:19:16.535Z,7.70
2022-11-27T13:21:45.566Z,7.70
2022-11-27T13:24:13.047Z,7.70
2022-11-27T13:26:43.390Z,7.70
2022-11-27T13:29:33.069Z,7.70
2022-11-27T13:32:02.766Z,7.70
2022-11-27T13:34:30.861Z,7.70
2022-11-27T13:37:02.561Z,7.70
2022-11-27T13:39:37.949Z,7.70
2022-11-27T13:42:23.350Z,7.70
2022-11-27T13:44:54.861Z,7.70
2022-11-27T13:47:23.091Z,7.70
2022-11-27T13:50:05.561Z,7.70
2022-11-27T13:52:32.385Z,7.70
2022-11-27T13:55:00.188Z,7.60
2022-11-27T13:57:27.913Z,7.60
2022-11-27T13:59:59.909Z,7.60
2022-11-27T14:02:41.162Z,7.60
2022-11-27T14:05:08.132Z,7.60
2022-11-27T14:07:50.954Z,7.60
2022-11-27T14:10:20.420Z,7.60
2022-11-27T14:12:57.747Z,7.60
2022-11-27T14:15:25.926Z,7.60
2022-11-27T14:17:55.030Z,7.60
2022-11-27T14:20:27.384Z,7.60
2022-11-27T14:23:12.905Z,7.50
2022-11-27T14:25:40.777Z,7.50
2022-11-27T14:28:27.207Z,7.50
2022-11-27T14:30:56.849Z,7.50
2022-11-27T14:33:23.573Z,7.50
2022-11-27T14:35:51.681Z,7.50
2022-11-27T14:38:20.948Z,7.50
2022-11-27T14:40:48.536Z,7.50
2022-11-27T14:43:16.690Z,7.40
2022-11-27T14:45:48.442Z,7.40
2022-11-27T14:48:22.266Z,7.40
2022-11-27T14:50:50.129Z,7.40
2022-11-27T14:53:27.130Z,7.40
2022-11-27T14:55:55.382Z,7.40
2022-11-27T14:58:28.092Z,7.40
2022-11-27T15:01:02.408Z,7.40
2022-11-27T15:03:31.745Z,7.30
2022-11-27T15:05:59.685Z,7.30
2022-11-27T15:08:29.430Z,7.30
2022-11-27T15:10:59.673Z,7.30
2022-11-27T15:13:31.169Z,7.20
2022-11-27T15:16:02.385Z,7.20
2022-11-27T15:18:30.290Z,7.20
2022-11-27T15:20:57.509Z,7.20
2022-11-27T15:23:28.953Z,7.20
2022-11-27T15:25:58.894Z,7.20
2022-11-27T15:28:30.080Z,7.20
2022-11-27T15:30:59.203Z,7.20
2022-11-27T15:33:26.625Z,7.20
2022-11-27T15:35:54.200Z,7.20
2022-11-27T15:38:21.056Z,7.20
2022-11-27T15:40:57.435Z,7.10
2022-11-27T15:43:24.172Z,7.10
2022-11-27T15:45:51.289Z,7.10
2022-11-27T15:48:19.085Z,7.10
2022-11-27T15:50:51.639Z,7.10
2022-11-27T15:53:18.700Z,7.10
2022-11-27T15:55:47.988Z,7.10
2022-11-27T15:58:17.218Z,7.10
2022-11-27T16:00:44.065Z,7.00
2022-11-27T16:03:11.080Z,7.00
2022-11-27T16:05:37.874Z,7.00
2022-11-27T16:08:05.341Z,7.00
2022-11-27T16:10:32.201Z,7.00
2022-11-27T16:12:59.300Z,7.00
2022-11-27T16:15:30.166Z,7.00
2022-11-27T16:18:01.994Z,7.00
2022-11-27T16:20:28.885Z,7.00
2022-11-27T16:22:55.598Z,6.90
2022-11-27T16:25:22.474Z,7.00
2022-11-27T16:27:51.882Z,7.00
2022-11-27T16:30:20.247Z,7.00
2022-11-27T16:32:47.727Z,6.90
2022-11-27T16:35:19.219Z,6.90
2022-11-27T16:37:46.176Z,6.90
2022-11-27T16:40:13.735Z,6.90
2022-11-27T16:42:44.002Z,6.90
2022-11-27T16:45:14.136Z,6.90
2022-11-27T16:47:40.853Z,6.90
2022-11-27T16:50:10.337Z,6.90
2022-11-27T16:52:37.366Z,6.90
2022-11-27T16:55:04.651Z,6.90
2022-11-27T16:57:31.452Z,6.90
2022-11-27T16:59:58.237Z,6.90
2022-11-27T17:02:28.556Z,6.80
2022-11-27T17:04:55.967Z,6.90
2022-11-27T17:07:22.739Z,6.90
2022-11-27T17:09:49.610Z,6.80
2022-11-27T17:12:16.614Z,6.90
2022-11-27T17:14:43.904Z,6.80
2022-11-27T17:17:13.361Z,6.80
2022-11-27T17:19:40.445Z,6.80
2022-11-27T17:22:07.994Z,6.80
2022-11-27T17:24:36.674Z,6.80
2022-11-27T17:27:08.332Z,6.80
2022-11-27T17:29:36.154Z,6.80
2022-11-27T17:32:07.184Z,6.80
2022-11-27T17:34:34.363Z,6.70
2022-11-27T17:37:04.185Z,6.70
2022-11-27T17:39:31.532Z,6.70
2022-11-27T17:41:58.314Z,6.70
2022-11-27T17:44:25.049Z,6.70
2022-11-27T17:46:51.905Z,6.70
2022-11-27T17:49:19.562Z,6.70
2022-11-27T17:51:47.000Z,6.70
2022-11-27T17:54:19.340Z,6.70
2022-11-27T17:56:51.219Z,6.70
2022-11-27T17:59:19.177Z,6.70
2022-11-27T18:01:51.115Z,6.70
2022-11-27T18:04:18.318Z,6.60
2022-11-27T18:06:45.124Z,6.70
2022-11-27T18:09:14.457Z,6.60
2022-11-27T18:11:41.607Z,6.60
2022-11-27T18:14:11.986Z,6.60
2022-11-27T18:16:45.328Z,6.60
2022-11-27T18:19:14.650Z,6.60
2022-11-27T18:21:41.621Z,6.60
2022-11-27T18:24:26.129Z,6.60
2022-11-27T18:27:08.185Z,6.60
2022-11-27T18:29:36.917Z,6.60
2022-11-27T18:32:03.767Z,6.60
2022-11-27T18:34:30.636Z,6.60
2022-11-27T18:37:00.795Z,6.60
2022-11-27T18:39:27.601Z,6.60
2022-11-27T18:41:54.394Z,6.60
2022-11-27T18:44:21.159Z,6.60
2022-11-27T18:46:48.206Z,6.60
2022-11-27T18:49:14.971Z,6.60
2022-11-27T18:51:42.164Z,6.60
2022-11-27T18:54:08.901Z,6.60
2022-11-27T18:56:37.094Z,6.60
2022-11-27T18:59:06.330Z,6.50
2022-11-27T19:01:39.592Z,6.50
2022-11-27T19:04:07.988Z,6.50
2022-11-27T19:06:35.302Z,6.50
2022-11-27T19:09:02.089Z,6.50
2022-11-27T19:11:32.675Z,6.50
2022-11-27T19:13:59.654Z,6.40
2022-11-27T19:16:43.867Z,6.40
2022-11-27T19:19:43.966Z,6.40
2022-11-27T19:22:00.436Z,6.40
2022-11-27T19:24:27.274Z,6.40
2022-11-27T19:26:57.950Z,6.40
2022-11-27T19:29:24.795Z,6.40
2022-11-27T19:31:52.195Z,6.30
2022-11-27T19:34:22.749Z,6.30
2022-11-27T19:36:52.888Z,6.30
2022-11-27T19:39:19.955Z,6.30
2022-11-27T19:41:50.679Z,6.30
2022-11-27T19:44:20.502Z,6.30
2022-11-27T19:46:47.896Z,6.30
2022-11-27T19:49:19.723Z,6.30
2022-11-27T19:51:51.826Z,6.20
2022-11-27T19:54:19.996Z,6.20
2022-11-27T19:56:47.203Z,6.20
2022-11-27T19:59:14.082Z,6.20
2022-11-27T20:01:41.608Z,6.20
2022-11-27T20:04:11.693Z,6.20
2022-11-27T20:06:41.248Z,6.20
2022-11-27T20:09:10.724Z,6.20
2022-11-27T20:11:39.308Z,6.20
2022-11-27T20:14:06.115Z,6.20
2022-11-27T20:16:36.247Z,6.20
2022-11-27T20:19:05.372Z,6.10
2022-11-27T20:21:33.904Z,6.10
2022-11-27T20:24:02.161Z,6.10
2022-11-27T20:26:30.444Z,6.10
2022-11-27T20:28:59.818Z,6.00
2022-11-27T20:31:28.443Z,6.00
2022-11-27T20:33:56.525Z,6.00
2022-11-27T20:36:24.379Z,6.00
2022-11-27T20:38:52.032Z,6.00
2022-11-27T20:41:20.267Z,6.00
2022-11-27T20:43:50.569Z,6.00
2022-11-27T20:46:18.302Z,6.00
2022-11-27T20:48:46.412Z,5.90
2022-11-27T20:51:16.993Z,5.90
2022-11-27T20:53:47.539Z,5.90
2022-11-27T20:56:15.844Z,5.90
2022-11-27T20:58:43.807Z,5.90
2022-11-27T21:01:17.652Z,5.90
2022-11-27T21:03:45.378Z,5.90
2022-11-27T21:06:14.906Z,5.90
2022-11-27T21:08:42.390Z,5.90
2022-11-27T21:11:16.219Z,5.90
2022-11-27T21:13:44.771Z,5.90
2022-11-27T21:16:13.494Z,5.90
2022-11-27T21:18:40.735Z,5.90
2022-11-27T21:21:12.587Z,5.90
2022-11-27T21:23:41.654Z,5.90
2022-11-27T21:26:11.297Z,5.80
2022-11-27T21:28:38.327Z,5.80
2022-11-27T21:31:06.385Z,5.90
2022-11-27T21:33:38.024Z,5.80
2022-11-27T21:36:05.126Z,5.80
2022-11-27T21:38:32.716Z,5.80
2022-11-27T21:41:01.818Z,5.80
2022-11-27T21:43:31.707Z,5.80
2022-11-27T21:45:59.199Z,5.80
2022-11-27T21:48:30.168Z,5.80
2022-11-27T21:51:00.993Z,5.70
2022-11-27T21:53:28.776Z,5.70
2022-11-27T21:55:55.598Z,5.80
2022-11-27T21:58:24.789Z,5.70
2022-11-27T22:00:51.648Z,5.70
2022-11-27T22:03:18.688Z,5.70
2022-11-27T22:05:45.532Z,5.70
2022-11-27T22:08:12.273Z,5.70
2022-11-27T22:10:39.670Z,5.70
2022-11-27T22:13:09.125Z,5.70
2022-11-27T22:15:38.298Z,5.70
2022-11-27T22:18:05.248Z,5.70
2022-11-27T22:20:32.001Z,5.70
2022-11-27T22:22:58.884Z,5.70
2022-11-27T22:25:26.075Z,5.70
2022-11-27T22:27:53.374Z,5.70
2022-11-27T22:30:20.140Z,5.70
2022-11-27T22:32:47.122Z,5.70
2022-11-27T22:35:13.914Z,5.70
2022-11-27T22:37:40.724Z,5.70
2022-11-27T22:40:09.807Z,5.70
2022-11-27T22:42:38.729Z,5.70
2022-11-27T22:45:06.578Z,5.70
2022-11-27T22:47:33.482Z,5.70
2022-11-27T22:50:00.407Z,5.70
2022-11-27T22:52:30.255Z,5.70
2022-11-27T22:54:58.105Z,5.70
2022-11-27T22:57:25.728Z,5.70
2022-11-27T22:59:55.744Z,5.70
2022-11-27T23:02:24.741Z,5.70
2022-11-27T23:04:54.346Z,5.70
2022-11-27T23:07:24.905Z,5.70
2022-11-27T23:09:54.540Z,5.70
2022-11-27T23:12:21.250Z,5.70
2022-11-27T23:14:48.009Z,5.60
2022-11-27T23:17:14.699Z,5.70
2022-11-27T23:19:41.454Z,5.70
2022-11-27T23:22:08.209Z,5.70
2022-11-27T23:24:34.957Z,5.70
2022-11-27T23:27:03.983Z,5.70
2022-11-27T23:29:30.727Z,5.70
2022-11-27T23:31:59.935Z,5.60
2022-11-27T23:34:28.752Z,5.70
2022-11-27T23:36:55.449Z,5.70
2022-11-27T23:39:22.155Z,5.70
2022-11-27T23:41:49.456Z,5.60
2022-11-27T23:44:16.361Z,5.60
2022-11-27T23:46:45.411Z,5.60
2022-11-27T23:49:12.119Z,5.60
2022-11-27T23:51:38.955Z,5.60
2022-11-27T23:54:06.764Z,5.60
2022-11-27T23:56:33.725Z,5.60
2022-11-27T23:59:00.905Z,5.60
